Terminal Aerodrome Forecast
Issued by NWS

Home | Current Version | Previous Version | Text Only | Print | Product List | Glossary Off
Versions: 1 2 3 4 5 6 7 8 9 10 11 12 13 14 15 16 17 18 19 20 21 22 23 24 25 26 27

319
FTUS43 KLOT 200528
TAFORD
TAF
KORD 200528Z 2006/2112 20012KT 6SM -RA VCTS SCT015 OVC035CB
      TEMPO 2006/2010 2SM TSRA BR SCT009 OVC015CB
     FM201000 23008KT 3SM -RA BR VCTS SCT009 OVC015CB
      TEMPO 2010/2013 1SM TSRA BR SCT005 OVC009CB
     FM201300 21012KT 1 1/2SM -SHRA BR OVC005 WS020/22055KT
     FM201700 21012G18KT 3SM RA BR BKN005 OVC010 WS020/22055KT
      TEMPO 2017/2021 2SM TSRA BR OVC005CB
     FM202100 27011KT 2SM -SHRA BR OVC004
     FM210100 31012KT 6SM -SHRA BR OVC008
     FM210600 32012G17KT P6SM SCT010 BKN035=

USA.gov is the U.S. government's official web portal to all federal, state and local government web resources and services.